createdAt,value
2018-10-21T00:01:46.002Z,43.70
2018-10-21T00:04:14.894Z,38.47
2018-10-21T00:06:43.708Z,38.63
2018-10-21T00:09:13.028Z,38.50
2018-10-21T00:11:42.260Z,42.60
2018-10-21T00:14:11.053Z,40.80
2018-10-21T00:16:39.868Z,40.27
2018-10-21T00:19:08.970Z,38.60
2018-10-21T00:21:37.925Z,42.97
2018-10-21T00:24:06.771Z,43.40
2018-10-21T00:26:35.599Z,41.70
2018-10-21T00:29:04.880Z,42.13
2018-10-21T00:31:33.655Z,38.57
2018-10-21T00:34:02.609Z,43.83
2018-10-21T00:36:31.381Z,39.70
2018-10-21T00:39:00.266Z,40.67
2018-10-21T00:41:29.244Z,43.60
2018-10-21T00:43:58.031Z,40.10
2018-10-21T00:46:26.890Z,44.93
2018-10-21T00:48:55.768Z,45.50
2018-10-21T00:51:24.571Z,42.67
2018-10-21T00:53:53.592Z,43.90
2018-10-21T00:56:22.608Z,50.27
2018-10-21T00:58:51.472Z,47.27
2018-10-21T01:01:20.305Z,47.67
2018-10-21T01:03:49.182Z,45.43
2018-10-21T01:06:18.120Z,51.03
2018-10-21T01:08:46.912Z,48.23
2018-10-21T01:11:15.920Z,48.40
2018-10-21T01:13:44.699Z,47.10
2018-10-21T01:16:13.789Z,43.70
2018-10-21T01:18:42.684Z,51.23
2018-10-21T01:21:11.567Z,48.10
2018-10-21T01:23:40.536Z,45.47
2018-10-21T01:26:09.404Z,45.87
2018-10-21T01:28:38.451Z,54.40
2018-10-21T01:31:07.297Z,48.63
2018-10-21T01:33:36.163Z,44.47
2018-10-21T01:36:05.331Z,44.87
2018-10-21T01:38:34.116Z,46.87
2018-10-21T01:41:02.963Z,51.27
2018-10-21T01:43:32.714Z,44.10
2018-10-21T01:46:02.418Z,46.93
2018-10-21T01:48:32.439Z,43.47
2018-10-21T01:51:01.432Z,40.63
2018-10-21T01:53:30.256Z,48.50
2018-10-21T01:55:59.649Z,44.67
2018-10-21T01:58:28.456Z,42.93
2018-10-21T02:00:57.581Z,46.47
2018-10-21T02:03:26.504Z,42.73
2018-10-21T02:05:55.280Z,44.10
2018-10-21T02:08:24.069Z,44.23
2018-10-21T02:10:53.163Z,44.40
2018-10-21T02:13:22.020Z,43.10
2018-10-21T02:15:50.825Z,44.87
2018-10-21T02:18:20.123Z,48.30
2018-10-21T02:20:48.952Z,47.73
2018-10-21T02:23:17.775Z,46.00
2018-10-21T02:25:46.751Z,42.73
2018-10-21T02:28:15.533Z,48.00
2018-10-21T02:30:44.301Z,45.33
2018-10-21T02:33:13.261Z,42.77
2018-10-21T02:35:42.022Z,44.97
2018-10-21T02:38:11.180Z,47.57
2018-10-21T02:41:54.128Z,45.43
2018-10-21T02:44:23.338Z,45.13
2018-10-21T02:46:53.563Z,40.67
2018-10-21T02:49:22.759Z,47.50
2018-10-21T02:51:57.148Z,47.77
2018-10-21T02:54:27.397Z,47.33
2018-10-21T02:56:56.487Z,55.63
2018-10-21T02:59:25.599Z,52.07
2018-10-21T03:01:55.919Z,55.17
2018-10-21T03:04:24.865Z,60.87
2018-10-21T03:06:53.639Z,55.07
2018-10-21T03:09:22.934Z,57.37
2018-10-21T03:11:51.746Z,62.17
2018-10-21T03:14:20.544Z,58.43
2018-10-21T03:16:49.440Z,62.57
2018-10-21T03:19:18.260Z,63.27
2018-10-21T03:21:47.178Z,62.23
2018-10-21T03:24:16.072Z,56.50
2018-10-21T03:26:46.099Z,61.80
2018-10-21T03:29:14.881Z,57.97
2018-10-21T03:31:43.713Z,59.93
2018-10-21T03:34:12.508Z,60.80
2018-10-21T03:36:41.371Z,62.27
2018-10-21T03:39:10.728Z,62.50
2018-10-21T03:41:39.543Z,69.47
2018-10-21T03:44:08.301Z,61.47
2018-10-21T03:46:37.830Z,58.53
2018-10-21T03:49:06.689Z,62.90
2018-10-21T03:51:35.495Z,60.30
2018-10-21T03:54:04.859Z,64.50
2018-10-21T03:56:33.642Z,56.73
2018-10-21T03:59:02.576Z,65.30
2018-10-21T04:01:31.450Z,57.33
2018-10-21T04:04:00.318Z,59.37
2018-10-21T04:06:29.473Z,56.40
2018-10-21T04:08:58.345Z,60.17
2018-10-21T04:11:27.411Z,57.00
2018-10-21T04:13:56.253Z,52.50
2018-10-21T04:16:25.473Z,59.27
2018-10-21T04:18:54.497Z,57.73
2018-10-21T04:21:23.321Z,55.63
2018-10-21T04:23:52.517Z,59.63
2018-10-21T04:26:21.458Z,59.23
2018-10-21T04:28:50.257Z,59.40
2018-10-21T04:31:19.124Z,61.90
2018-10-21T04:33:48.026Z,65.00
2018-10-21T04:36:33.543Z,57.53
2018-10-21T04:39:25.152Z,56.27
2018-10-21T04:41:54.017Z,58.03
2018-10-21T04:44:22.829Z,59.23
2018-10-21T04:46:51.762Z,60.53
2018-10-21T04:49:20.605Z,61.10
2018-10-21T04:51:49.377Z,62.07
2018-10-21T04:54:18.159Z,61.73
2018-10-21T04:56:46.984Z,61.97
2018-10-21T04:59:15.896Z,63.70
2018-10-21T05:01:44.777Z,65.40
2018-10-21T05:04:13.635Z,58.67
2018-10-21T05:06:42.396Z,62.60
2018-10-21T05:09:11.182Z,63.40
2018-10-21T05:11:40.333Z,66.37
2018-10-21T05:14:09.272Z,63.23
2018-10-21T05:16:38.100Z,72.70
2018-10-21T05:19:07.204Z,68.43
2018-10-21T05:21:36.008Z,66.53
2018-10-21T05:24:05.281Z,64.47
2018-10-21T05:26:34.186Z,68.43
2018-10-21T05:29:02.984Z,59.40
2018-10-21T05:31:31.837Z,61.30
2018-10-21T05:34:00.723Z,66.93
2018-10-21T05:36:29.496Z,69.43
2018-10-21T05:38:58.395Z,60.47
2018-10-21T05:41:27.233Z,61.33
2018-10-21T05:43:56.025Z,69.80
2018-10-21T05:46:40.449Z,61.83
2018-10-21T05:49:09.390Z,57.93
2018-10-21T05:51:39.172Z,60.93
2018-10-21T05:54:09.611Z,66.43
2018-10-21T05:56:39.544Z,66.13
2018-10-21T05:59:08.376Z,68.07
2018-10-21T06:01:38.119Z,66.90
2018-10-21T06:04:07.705Z,67.83
2018-10-21T06:06:36.531Z,74.83
2018-10-21T06:09:07.560Z,68.17
2018-10-21T06:11:36.504Z,68.70
2018-10-21T06:14:05.866Z,76.77
2018-10-21T06:16:40.743Z,72.97
2018-10-21T06:19:12.461Z,66.67
2018-10-21T06:21:42.541Z,63.57
2018-10-21T06:24:11.354Z,67.13
2018-10-21T06:26:40.204Z,64.87
2018-10-21T06:29:09.088Z,65.20
2018-10-21T06:31:37.917Z,63.90
2018-10-21T06:34:06.931Z,69.33
2018-10-21T06:36:35.958Z,72.00
2018-10-21T06:39:05.699Z,70.77
2018-10-21T06:41:34.506Z,71.87
2018-10-21T06:44:03.538Z,72.57
2018-10-21T06:46:32.415Z,72.47
2018-10-21T06:49:01.557Z,72.33
2018-10-21T06:51:30.636Z,69.17
2018-10-21T06:53:59.446Z,67.60
2018-10-21T06:56:28.420Z,68.00
2018-10-21T06:58:58.203Z,71.30
2018-10-21T07:01:27.866Z,58.80
2018-10-21T07:03:56.839Z,66.93
2018-10-21T07:06:26.800Z,68.80
2018-10-21T07:08:56.882Z,66.00
2018-10-21T07:11:25.774Z,65.40
2018-10-21T07:13:54.586Z,68.83
2018-10-21T07:16:23.563Z,62.67
2018-10-21T07:18:52.875Z,62.23
2018-10-21T07:21:21.703Z,65.30
2018-10-21T07:23:50.980Z,58.77
2018-10-21T07:26:19.896Z,62.70
2018-10-21T07:28:48.699Z,60.40
2018-10-21T07:31:17.611Z,66.13
2018-10-21T07:33:46.359Z,59.30
2018-10-21T07:36:15.229Z,65.13
2018-10-21T07:38:44.084Z,59.77
2018-10-21T07:41:12.917Z,57.47
2018-10-21T07:43:41.763Z,57.13
2018-10-21T07:46:10.907Z,61.97
2018-10-21T07:48:39.806Z,56.70
2018-10-21T07:51:08.836Z,55.07
2018-10-21T07:53:37.697Z,58.33
2018-10-21T07:56:06.874Z,55.30
2018-10-21T07:58:35.752Z,61.17
2018-10-21T08:01:05.020Z,53.87
2018-10-21T08:03:33.823Z,58.40
2018-10-21T08:06:31.901Z,58.20
2018-10-21T08:09:00.761Z,57.67
2018-10-21T08:11:29.656Z,61.33
2018-10-21T08:13:58.514Z,60.07
2018-10-21T08:16:27.334Z,51.40
2018-10-21T08:18:56.197Z,51.60
2018-10-21T08:21:25.077Z,52.60
2018-10-21T08:23:53.995Z,53.80
2018-10-21T08:26:23.183Z,58.07
2018-10-21T08:28:52.071Z,54.93
2018-10-21T08:31:20.831Z,53.60
2018-10-21T08:33:49.891Z,53.57
2018-10-21T08:36:18.769Z,56.93
2018-10-21T08:38:47.568Z,55.33
2018-10-21T08:41:16.397Z,52.97
2018-10-21T08:43:45.251Z,56.63
2018-10-21T08:46:14.138Z,52.80
2018-10-21T08:48:42.981Z,56.43
2018-10-21T08:51:11.867Z,49.47
2018-10-21T08:53:40.749Z,58.10
2018-10-21T08:56:09.640Z,53.90
2018-10-21T08:58:38.631Z,53.97
2018-10-21T09:01:07.760Z,51.90
2018-10-21T09:03:36.862Z,50.23
2018-10-21T09:06:05.758Z,53.67
2018-10-21T09:08:34.533Z,50.40
2018-10-21T09:11:03.481Z,51.43
2018-10-21T09:13:32.361Z,48.10
2018-10-21T09:16:01.272Z,46.07
2018-10-21T09:18:30.065Z,49.17
2018-10-21T09:20:58.952Z,47.37
2018-10-21T09:23:27.773Z,50.47
2018-10-21T09:25:56.715Z,45.97
2018-10-21T09:28:25.532Z,43.87
2018-10-21T09:30:54.401Z,46.50
2018-10-21T09:33:23.242Z,44.80
2018-10-21T09:35:52.110Z,47.67
2018-10-21T09:38:20.973Z,45.73
2018-10-21T09:40:49.792Z,45.73
2018-10-21T09:43:18.691Z,42.03
2018-10-21T09:45:47.575Z,44.70
2018-10-21T09:48:16.433Z,45.07
2018-10-21T09:50:45.333Z,43.10
2018-10-21T09:53:14.168Z,45.10
2018-10-21T09:55:43.140Z,42.33
2018-10-21T09:58:12.104Z,43.97
2018-10-21T10:00:46.390Z,43.40
2018-10-21T10:03:15.359Z,46.50
2018-10-21T10:05:44.242Z,43.67
2018-10-21T10:08:13.092Z,40.53
2018-10-21T10:10:42.143Z,41.37
2018-10-21T10:13:11.081Z,45.70
2018-10-21T10:15:39.950Z,40.63
2018-10-21T10:18:08.780Z,42.10
2018-10-21T10:20:37.607Z,44.73
2018-10-21T10:23:06.552Z,40.83
2018-10-21T10:25:35.347Z,39.57
2018-10-21T10:28:04.338Z,40.53
2018-10-21T10:30:33.165Z,39.40
2018-10-21T10:33:01.928Z,39.00
2018-10-21T10:35:30.748Z,34.90
2018-10-21T10:37:59.637Z,35.50
2018-10-21T10:40:28.651Z,39.40
2018-10-21T10:42:57.459Z,35.03
2018-10-21T10:45:26.269Z,36.93
2018-10-21T10:47:55.059Z,33.37
2018-10-21T10:50:29.955Z,39.57
2018-10-21T10:52:58.908Z,37.43
2018-10-21T10:55:33.355Z,33.73
2018-10-21T10:58:02.345Z,33.90
2018-10-21T11:00:31.176Z,33.47
2018-10-21T11:03:00.971Z,35.37
2018-10-21T11:05:30.486Z,35.90
2018-10-21T11:07:59.810Z,34.70
2018-10-21T11:10:28.693Z,32.67
2018-10-21T11:12:57.600Z,30.50
2018-10-21T11:15:26.476Z,30.30
2018-10-21T11:17:55.297Z,23.97
2018-10-21T11:20:24.512Z,26.90
2018-10-21T11:22:53.376Z,24.03
2018-10-21T11:25:22.153Z,25.90
2018-10-21T11:27:51.533Z,27.57
2018-10-21T11:30:20.398Z,24.90
2018-10-21T11:32:49.264Z,24.97
2018-10-21T11:35:18.211Z,25.00
2018-10-21T11:37:47.083Z,22.90
2018-10-21T11:40:15.917Z,23.60
2018-10-21T11:42:44.818Z,21.13
2018-10-21T11:45:13.778Z,21.30
2018-10-21T11:47:42.585Z,21.97
2018-10-21T11:50:11.894Z,22.43
2018-10-21T11:52:40.812Z,22.70
2018-10-21T11:55:10.444Z,21.63
2018-10-21T11:57:39.284Z,20.73
2018-10-21T12:00:09.624Z,25.07
2018-10-21T12:02:38.533Z,23.73
2018-10-21T12:05:07.975Z,20.73
2018-10-21T12:07:36.804Z,22.33
2018-10-21T12:10:06.460Z,25.40
2018-10-21T12:12:35.599Z,22.73
2018-10-21T12:15:04.808Z,22.87
2018-10-21T12:17:33.670Z,20.80
2018-10-21T12:20:02.607Z,23.33
2018-10-21T12:22:31.382Z,23.13
2018-10-21T12:25:00.337Z,24.17
2018-10-21T12:27:29.231Z,22.93
2018-10-21T12:29:58.081Z,17.40
2018-10-21T12:32:26.909Z,15.47
2018-10-21T12:34:56.265Z,17.83
2018-10-21T12:37:25.341Z,15.80
2018-10-21T12:39:54.161Z,14.93
2018-10-21T12:42:23.132Z,12.20
2018-10-21T12:44:51.949Z,12.37
2018-10-21T12:47:20.848Z,10.17
2018-10-21T12:49:49.718Z,8.83
2018-10-21T12:52:18.803Z,9.00
2018-10-21T12:54:47.676Z,7.60
2018-10-21T12:57:16.995Z,9.67
2018-10-21T12:59:45.778Z,11.13
2018-10-21T13:02:14.629Z,10.47
2018-10-21T13:04:43.493Z,8.63
2018-10-21T13:07:12.462Z,10.43
2018-10-21T13:09:41.339Z,9.97
2018-10-21T13:12:10.264Z,8.97
2018-10-21T13:14:39.076Z,13.70
2018-10-21T13:17:14.347Z,10.70
2018-10-21T13:19:43.281Z,13.90
2018-10-21T13:22:12.234Z,11.73
2018-10-21T13:24:41.441Z,10.43
2018-10-21T13:27:10.665Z,14.67
2018-10-21T13:29:39.489Z,11.87
2018-10-21T13:32:08.476Z,16.10
2018-10-21T13:34:37.386Z,29.13
2018-10-21T13:37:06.242Z,13.93
2018-10-21T13:39:35.124Z,22.67
2018-10-21T13:42:04.460Z,14.77
2018-10-21T13:44:33.376Z,15.67
2018-10-21T13:47:02.493Z,14.97
2018-10-21T13:49:32.523Z,15.93
2018-10-21T13:52:03.818Z,19.27
2018-10-21T13:54:33.588Z,21.83
2018-10-21T13:57:02.733Z,20.60
2018-10-21T13:59:31.665Z,19.43
2018-10-21T14:02:00.623Z,22.57
2018-10-21T14:04:29.428Z,23.73
2018-10-21T14:06:58.360Z,21.37
2018-10-21T14:09:27.178Z,19.23
2018-10-21T14:11:55.976Z,21.87
2018-10-21T14:14:24.913Z,23.37
2018-10-21T14:16:53.701Z,21.63
2018-10-21T14:19:22.499Z,22.13
2018-10-21T14:21:51.492Z,21.10
2018-10-21T14:24:20.321Z,23.90
2018-10-21T14:26:49.100Z,22.60
2018-10-21T14:29:18.226Z,16.70
2018-10-21T14:31:47.037Z,17.67
2018-10-21T14:34:16.096Z,17.00
2018-10-21T14:36:45.259Z,16.13
2018-10-21T14:39:14.172Z,18.23
2018-10-21T14:41:43.046Z,15.57
2018-10-21T14:44:12.266Z,19.00
2018-10-21T14:46:41.173Z,20.43
2018-10-21T14:49:11.232Z,17.37
2018-10-21T14:51:40.156Z,15.80
2018-10-21T14:54:09.040Z,15.37
2018-10-21T14:56:37.936Z,15.13
2018-10-21T14:59:06.905Z,15.00
2018-10-21T15:01:35.822Z,17.07
2018-10-21T15:04:05.013Z,13.67
2018-10-21T15:06:33.873Z,15.37
2018-10-21T15:09:04.111Z,16.63
2018-10-21T15:11:33.434Z,14.67
2018-10-21T15:14:02.475Z,15.03
2018-10-21T15:16:31.505Z,17.47
2018-10-21T15:19:00.315Z,18.33
2018-10-21T15:21:29.601Z,19.40
2018-10-21T15:23:58.494Z,16.27
2018-10-21T15:26:27.346Z,18.13
2018-10-21T15:28:56.214Z,19.10
2018-10-21T15:31:25.047Z,22.47
2018-10-21T15:33:53.943Z,19.07
2018-10-21T15:36:22.865Z,24.00
2018-10-21T15:38:51.675Z,18.90
2018-10-21T15:41:20.495Z,20.37
2018-10-21T15:43:49.820Z,19.17
2018-10-21T15:46:18.740Z,20.57
2018-10-21T15:48:47.821Z,21.40
2018-10-21T15:51:16.635Z,19.13
2018-10-21T15:53:45.506Z,19.97
2018-10-21T15:56:14.416Z,21.33
2018-10-21T15:58:43.432Z,24.50
2018-10-21T16:01:12.379Z,22.70
2018-10-21T16:03:41.207Z,24.03
2018-10-21T16:06:10.398Z,25.80
2018-10-21T16:08:39.230Z,23.87
2018-10-21T16:11:08.244Z,22.90
2018-10-21T16:13:37.286Z,25.53
2018-10-21T16:16:06.486Z,22.77
2018-10-21T16:18:35.368Z,22.43
2018-10-21T16:21:04.298Z,23.40
2018-10-21T16:23:33.107Z,24.80
2018-10-21T16:26:02.105Z,26.33
2018-10-21T16:28:31.252Z,23.13
2018-10-21T16:31:00.629Z,25.57
2018-10-21T16:33:29.489Z,25.03
2018-10-21T16:35:58.381Z,23.40
2018-10-21T16:38:27.557Z,26.40
2018-10-21T16:40:56.861Z,23.43
2018-10-21T16:43:25.802Z,22.70
2018-10-21T16:45:54.567Z,29.13
2018-10-21T16:48:23.372Z,21.10
2018-10-21T16:50:52.348Z,19.13
2018-10-21T16:53:21.214Z,18.03
2018-10-21T16:55:50.001Z,20.80
2018-10-21T16:58:18.845Z,19.03
2018-10-21T17:00:47.981Z,18.93
2018-10-21T17:03:16.891Z,18.53
2018-10-21T17:05:45.966Z,20.20
2018-10-21T17:08:14.854Z,16.50
2018-10-21T17:10:44.059Z,14.63
2018-10-21T17:13:12.787Z,16.87
2018-10-21T17:15:41.713Z,17.67
2018-10-21T17:18:10.535Z,16.93
2018-10-21T17:20:39.408Z,16.73
2018-10-21T17:23:08.607Z,15.40
2018-10-21T17:25:37.381Z,16.30
2018-10-21T17:28:06.649Z,20.50
2018-10-21T17:30:35.807Z,17.13
2018-10-21T17:33:04.669Z,16.23
2018-10-21T17:35:33.900Z,19.33
2018-10-21T17:38:02.747Z,16.67
2018-10-21T17:40:31.678Z,15.67
2018-10-21T17:43:00.569Z,15.00
2018-10-21T17:45:29.440Z,16.77
2018-10-21T17:47:58.280Z,19.37
2018-10-21T17:50:27.164Z,17.03
2018-10-21T17:52:56.115Z,19.20
2018-10-21T17:55:24.952Z,16.77
2018-10-21T17:57:53.801Z,17.97
2018-10-21T18:00:22.686Z,18.60
2018-10-21T18:02:51.660Z,18.70
2018-10-21T18:05:20.758Z,20.13
2018-10-21T18:07:49.624Z,20.43
2018-10-21T18:10:18.521Z,19.30
2018-10-21T18:12:47.402Z,20.43
2018-10-21T18:15:16.190Z,21.97
2018-10-21T18:17:45.111Z,21.67
2018-10-21T18:20:14.048Z,21.30
2018-10-21T18:22:42.888Z,22.23
2018-10-21T18:25:11.753Z,19.90
2018-10-21T18:27:41.023Z,24.87
2018-10-21T18:30:11.178Z,20.33
2018-10-21T18:32:40.075Z,20.37
2018-10-21T18:35:11.361Z,20.23
2018-10-21T18:37:40.186Z,21.17
2018-10-21T18:40:09.916Z,21.73
2018-10-21T18:42:39.551Z,22.83
2018-10-21T18:45:11.739Z,22.73
2018-10-21T18:47:40.891Z,19.67
2018-10-21T18:50:12.556Z,24.67
2018-10-21T18:52:41.578Z,20.53
2018-10-21T18:55:11.441Z,19.33
2018-10-21T18:57:40.393Z,18.90
2018-10-21T19:00:13.719Z,21.37
2018-10-21T19:02:42.731Z,26.17
2018-10-21T19:05:12.380Z,18.83
2018-10-21T19:07:41.298Z,25.00
2018-10-21T19:10:12.128Z,20.67
2018-10-21T19:12:41.142Z,18.83
2018-10-21T19:15:11.364Z,21.33
2018-10-21T19:17:40.592Z,21.03
2018-10-21T19:20:12.413Z,23.13
2018-10-21T19:22:41.406Z,20.27
2018-10-21T19:25:11.755Z,19.07
2018-10-21T19:27:40.793Z,23.77
2018-10-21T19:30:11.287Z,23.93
2018-10-21T19:32:40.907Z,19.40
2018-10-21T19:35:11.134Z,18.53
2018-10-21T19:37:40.221Z,21.60
2018-10-21T19:40:11.027Z,23.13
2018-10-21T19:42:40.149Z,19.20
2018-10-21T19:45:10.567Z,21.70
2018-10-21T19:47:39.887Z,23.87
2018-10-21T19:50:10.776Z,23.20
2018-10-21T19:52:40.571Z,22.70
2018-10-21T19:55:09.675Z,18.83
2018-10-21T19:57:38.567Z,19.20
2018-10-21T20:00:11.881Z,23.97
2018-10-21T20:02:40.925Z,25.70
2018-10-21T20:05:10.089Z,21.00
2018-10-21T20:07:39.068Z,22.27
2018-10-21T20:10:10.849Z,20.87
2018-10-21T20:12:39.678Z,22.00
2018-10-21T20:15:09.753Z,20.27
2018-10-21T20:17:38.947Z,23.07
2018-10-21T20:20:08.932Z,23.87
2018-10-21T20:22:37.783Z,20.50
2018-10-21T20:25:08.217Z,20.13
2018-10-21T20:27:37.122Z,24.50
2018-10-21T20:30:08.095Z,25.57
2018-10-21T20:32:37.223Z,21.63
2018-10-21T20:35:07.716Z,20.77
2018-10-21T20:37:36.982Z,20.80
2018-10-21T20:40:07.244Z,21.00
2018-10-21T20:42:36.106Z,22.37
2018-10-21T20:45:07.096Z,26.10
2018-10-21T20:47:35.954Z,22.13
2018-10-21T20:50:05.101Z,21.97
2018-10-21T20:52:34.045Z,21.43
2018-10-21T20:55:02.960Z,23.87
2018-10-21T20:57:31.819Z,22.03
2018-10-21T21:00:00.690Z,24.57
2018-10-21T21:02:29.545Z,25.53
2018-10-21T21:04:58.670Z,26.20
2018-10-21T21:07:27.615Z,24.80
2018-10-21T21:09:56.705Z,28.67
2018-10-21T21:12:25.510Z,24.97
2018-10-21T21:14:54.377Z,23.57
2018-10-21T21:17:23.661Z,25.13
2018-10-21T21:19:52.518Z,25.77
2018-10-21T21:22:21.380Z,23.53
2018-10-21T21:24:50.220Z,24.73
2018-10-21T21:27:19.363Z,22.87
2018-10-21T21:29:48.251Z,26.87
2018-10-21T21:32:17.097Z,27.67
2018-10-21T21:34:45.968Z,24.10
2018-10-21T21:37:14.818Z,30.33
2018-10-21T21:39:43.676Z,26.87
2018-10-21T21:42:12.676Z,24.83
2018-10-21T21:44:41.477Z,25.07
2018-10-21T21:47:10.330Z,25.10
2018-10-21T21:49:39.552Z,24.53
2018-10-21T21:52:08.487Z,25.53
2018-10-21T21:54:37.393Z,23.90
2018-10-21T21:57:06.581Z,25.33
2018-10-21T21:59:35.449Z,26.17
2018-10-21T22:02:04.629Z,22.63
2018-10-21T22:04:33.563Z,24.17
2018-10-21T22:07:02.434Z,20.30
2018-10-21T22:09:31.274Z,22.93
2018-10-21T22:12:00.369Z,22.27
2018-10-21T22:14:29.214Z,23.63
2018-10-21T22:16:58.070Z,25.47
2018-10-21T22:19:27.025Z,25.77
2018-10-21T22:21:55.879Z,28.10
2018-10-21T22:24:24.742Z,23.57
2018-10-21T22:26:53.628Z,26.00
2018-10-21T22:29:22.474Z,25.43
2018-10-21T22:31:51.409Z,22.37
2018-10-21T22:34:20.273Z,25.73
2018-10-21T22:36:49.103Z,29.23
2018-10-21T22:39:17.964Z,26.30
2018-10-21T22:41:47.214Z,22.90
2018-10-21T22:44:16.085Z,23.63
2018-10-21T22:46:44.957Z,26.67
2018-10-21T22:49:14.277Z,24.03
2018-10-21T22:51:43.105Z,24.93
2018-10-21T22:54:12.289Z,27.23
2018-10-21T22:56:41.309Z,26.53
2018-10-21T22:59:10.182Z,24.00
2018-10-21T23:01:38.984Z,23.07
2018-10-21T23:04:07.916Z,23.60
2018-10-21T23:06:36.738Z,22.23
2018-10-21T23:09:09.080Z,24.27
2018-10-21T23:11:37.934Z,24.07
2018-10-21T23:14:06.913Z,25.20
2018-10-21T23:16:36.150Z,23.13
2018-10-21T23:19:21.926Z,28.77
2018-10-21T23:21:51.004Z,22.37
2018-10-21T23:24:19.985Z,23.97
2018-10-21T23:26:48.730Z,26.80
2018-10-21T23:29:17.588Z,26.30
2018-10-21T23:31:46.380Z,26.07
2018-10-21T23:34:15.277Z,25.90
2018-10-21T23:36:44.129Z,25.83
2018-10-21T23:39:12.975Z,28.83
2018-10-21T23:41:41.798Z,25.97
2018-10-21T23:44:10.733Z,26.33
2018-10-21T23:46:39.674Z,24.20
2018-10-21T23:49:08.513Z,27.43
2018-10-21T23:51:37.447Z,25.00
2018-10-21T23:54:06.395Z,27.10
2018-10-21T23:56:35.245Z,27.40
2018-10-21T23:59:04.906Z,27.00
